Terminal Aerodrome Forecast
Issued by NWS Duluth, MN

Home | Current Version | Previous Version | Text Only | Print | Product List | Glossary On
Versions: 1 2 3 4 5 6 7 8 9 10 11 12 13 14 15 16 17 18
000
FTUS43 KDLH 290500
TAFINL
TAF
KINL 290530Z 2906/3006 16003KT 6SM BR VCSH BKN080
     FM290900 16004KT P6SM VCSH BKN015 OVC040
      TEMPO 2911/2915 4SM -RA BR OVC025
     FM291500 15005KT P6SM VCSH OVC025
     FM292100 15004KT P6SM VCSH BKN050=

USA.gov is the U.S. government's official web portal to all federal, state and local government web resources and services.